createdAt,value
2018-10-05T00:01:16.091Z,11.25
2018-10-05T00:03:44.127Z,10.45
2018-10-05T00:06:12.304Z,10.82
2018-10-05T00:08:43.937Z,9.33
2018-10-05T00:11:12.079Z,9.53
2018-10-05T00:13:40.223Z,10.20
2018-10-05T00:16:08.161Z,11.33
2018-10-05T00:18:36.203Z,11.25
2018-10-05T00:21:04.405Z,9.58
2018-10-05T00:23:32.385Z,11.78
2018-10-05T00:26:00.555Z,12.55
2018-10-05T00:28:29.821Z,11.40
2018-10-05T00:30:57.980Z,11.38
2018-10-05T00:33:26.273Z,13.25
2018-10-05T00:35:54.337Z,14.65
2018-10-05T00:38:23.381Z,14.23
2018-10-05T00:40:54.127Z,17.30
2018-10-05T00:43:22.308Z,14.93
2018-10-05T00:45:50.323Z,15.00
2018-10-05T00:48:18.469Z,19.15
2018-10-05T00:50:46.464Z,14.13
2018-10-05T00:53:14.648Z,14.83
2018-10-05T00:55:42.642Z,16.10
2018-10-05T00:58:10.637Z,18.50
2018-10-05T01:00:38.868Z,16.95
2018-10-05T01:03:06.772Z,14.53
2018-10-05T01:05:34.991Z,13.88
2018-10-05T01:08:03.296Z,14.15
2018-10-05T01:10:31.259Z,14.85
2018-10-05T01:12:59.473Z,14.87
2018-10-05T01:15:27.513Z,13.83
2018-10-05T01:17:55.684Z,15.98
2018-10-05T01:20:23.979Z,22.40
2018-10-05T01:22:52.188Z,18.07
2018-10-05T01:25:19.966Z,14.28
2018-10-05T01:27:48.222Z,16.55
2018-10-05T01:30:16.327Z,14.65
2018-10-05T01:32:44.584Z,14.55
2018-10-05T01:35:13.229Z,13.25
2018-10-05T01:38:44.336Z,12.75
2018-10-05T01:41:12.868Z,13.53
2018-10-05T01:43:41.071Z,12.65
2018-10-05T01:46:09.057Z,12.78
2018-10-05T01:48:37.771Z,13.35
2018-10-05T01:51:06.422Z,14.25
2018-10-05T01:53:35.282Z,12.28
2018-10-05T01:56:03.324Z,14.50
2018-10-05T01:58:33.459Z,12.75
2018-10-05T02:01:01.696Z,12.90
2018-10-05T02:03:29.980Z,15.05
2018-10-05T02:05:58.297Z,14.80
2018-10-05T02:08:26.417Z,13.48
2018-10-05T02:10:54.459Z,16.05
2018-10-05T02:13:22.553Z,13.40
2018-10-05T02:15:50.648Z,14.05
2018-10-05T02:18:18.746Z,14.50
2018-10-05T02:20:47.491Z,14.78
2018-10-05T02:23:15.791Z,17.27
2018-10-05T02:25:43.834Z,13.62
2018-10-05T02:28:13.452Z,13.20
2018-10-05T02:30:41.504Z,13.78
2018-10-05T02:33:09.688Z,14.00
2018-10-05T02:35:37.643Z,13.62
2018-10-05T02:38:05.730Z,14.63
2018-10-05T02:40:33.687Z,16.40
2018-10-05T02:43:02.399Z,14.58
2018-10-05T02:45:30.609Z,13.38
2018-10-05T02:47:58.507Z,13.38
2018-10-05T02:50:26.292Z,14.18
2018-10-05T02:52:54.473Z,12.88
2018-10-05T02:55:22.407Z,15.48
2018-10-05T02:57:51.442Z,14.18
2018-10-05T03:00:30.870Z,14.13
2018-10-05T03:02:58.925Z,14.47
2018-10-05T03:05:27.141Z,15.48
2018-10-05T03:07:55.252Z,15.48
2018-10-05T03:10:23.568Z,15.75
2018-10-05T03:12:51.645Z,15.10
2018-10-05T03:15:19.595Z,17.10
2018-10-05T03:17:47.681Z,18.50
2018-10-05T03:20:15.755Z,16.97
2018-10-05T03:22:43.924Z,15.03
2018-10-05T03:25:12.027Z,14.78
2018-10-05T03:27:40.117Z,17.52
2018-10-05T03:30:08.828Z,15.20
2018-10-05T03:32:37.136Z,17.12
2018-10-05T03:35:05.097Z,15.75
2018-10-05T03:37:33.272Z,16.67
2018-10-05T03:40:01.253Z,16.65
2018-10-05T03:42:29.304Z,16.75
2018-10-05T03:44:57.460Z,17.73
2018-10-05T03:47:29.271Z,20.12
2018-10-05T03:49:57.293Z,17.65
2018-10-05T03:52:25.296Z,18.75
2018-10-05T03:54:53.447Z,19.92
2018-10-05T03:57:21.543Z,19.42
2018-10-05T03:59:49.551Z,17.82
2018-10-05T04:02:18.040Z,19.07
2018-10-05T04:04:46.226Z,18.80
2018-10-05T04:07:14.761Z,18.85
2018-10-05T04:09:44.009Z,22.20
2018-10-05T04:12:12.137Z,18.52
2018-10-05T04:14:40.136Z,18.95
2018-10-05T04:17:08.229Z,18.27
2018-10-05T04:19:36.200Z,20.00
2018-10-05T04:22:04.444Z,21.23
2018-10-05T04:24:32.460Z,26.52
2018-10-05T04:27:00.424Z,25.68
2018-10-05T04:29:28.637Z,22.05
2018-10-05T04:31:56.647Z,21.50
2018-10-05T04:34:24.686Z,33.75
2018-10-05T04:36:53.243Z,21.97
2018-10-05T04:39:21.464Z,20.62
2018-10-05T04:41:49.451Z,21.97
2018-10-05T04:44:17.662Z,20.20
2018-10-05T04:46:45.642Z,24.95
2018-10-05T04:49:13.803Z,24.92
2018-10-05T04:51:41.647Z,19.20
2018-10-05T04:54:10.007Z,21.10
2018-10-05T04:56:37.919Z,20.77
2018-10-05T04:59:05.904Z,18.77
2018-10-05T05:01:34.099Z,20.27
2018-10-05T05:04:02.281Z,17.92
2018-10-05T05:06:30.645Z,20.65
2018-10-05T05:08:59.034Z,20.55
2018-10-05T05:11:27.024Z,20.88
2018-10-05T05:13:54.982Z,23.87
2018-10-05T05:16:23.190Z,23.92
2018-10-05T05:18:51.238Z,28.25
2018-10-05T05:21:19.224Z,35.68
2018-10-05T05:23:47.192Z,27.62
2018-10-05T05:26:15.536Z,25.62
2018-10-05T05:28:43.540Z,24.10
2018-10-05T05:31:11.490Z,19.25
2018-10-05T05:33:39.378Z,26.35
2018-10-05T05:36:08.299Z,18.35
2018-10-05T05:38:36.745Z,23.55
2018-10-05T05:41:04.728Z,24.95
2018-10-05T05:43:32.863Z,22.85
2018-10-05T05:46:00.960Z,18.42
2018-10-05T05:48:29.098Z,21.82
2018-10-05T05:50:57.520Z,18.42
2018-10-05T05:53:25.785Z,23.47
2018-10-05T05:55:53.874Z,18.25
2018-10-05T05:58:23.179Z,23.27
2018-10-05T06:00:51.334Z,18.40
2018-10-05T06:03:19.179Z,20.10
2018-10-05T06:05:47.169Z,18.75
2018-10-05T06:08:15.649Z,18.65
2018-10-05T06:10:43.799Z,23.60
2018-10-05T06:13:11.905Z,19.60
2018-10-05T06:15:39.976Z,18.57
2018-10-05T06:18:09.374Z,23.60
2018-10-05T06:20:37.239Z,26.37
2018-10-05T06:23:05.493Z,17.92
2018-10-05T06:25:33.789Z,16.48
2018-10-05T06:28:01.830Z,15.45
2018-10-05T06:30:29.978Z,17.17
2018-10-05T06:32:58.029Z,19.32
2018-10-05T06:35:26.420Z,25.17
2018-10-05T06:37:54.511Z,32.40
2018-10-05T06:40:22.508Z,47.67
2018-10-05T06:42:53.892Z,48.23
2018-10-05T06:45:22.015Z,48.20
2018-10-05T06:47:50.108Z,40.17
2018-10-05T06:50:18.152Z,27.83
2018-10-05T06:52:46.289Z,29.03
2018-10-05T06:55:14.344Z,30.07
2018-10-05T06:57:42.383Z,24.23
2018-10-05T07:00:10.505Z,24.67
2018-10-05T07:02:38.523Z,19.40
2018-10-05T07:05:06.633Z,17.60
2018-10-05T07:07:34.651Z,17.67
2018-10-05T07:10:02.864Z,20.50
2018-10-05T07:12:30.693Z,16.70
2018-10-05T07:14:58.461Z,15.70
2018-10-05T07:17:27.175Z,17.83
2018-10-05T07:19:55.320Z,25.23
2018-10-05T07:22:23.499Z,19.37
2018-10-05T07:24:51.773Z,17.90
2018-10-05T07:27:19.981Z,17.33
2018-10-05T07:29:47.981Z,16.97
2018-10-05T07:32:16.018Z,15.53
2018-10-05T07:34:43.979Z,15.00
2018-10-05T07:37:12.199Z,15.37
2018-10-05T07:39:40.526Z,14.90
2018-10-05T07:42:08.576Z,14.43
2018-10-05T07:44:36.736Z,13.33
2018-10-05T07:47:04.616Z,15.67
2018-10-05T07:49:32.384Z,14.00
2018-10-05T07:52:00.989Z,13.93
2018-10-05T07:54:28.818Z,14.80
2018-10-05T07:56:57.032Z,13.83
2018-10-05T07:59:26.332Z,11.47
2018-10-05T08:01:54.476Z,13.20
2018-10-05T08:04:22.790Z,13.33
2018-10-05T08:06:50.861Z,15.23
2018-10-05T08:09:18.901Z,13.93
2018-10-05T08:11:46.922Z,12.97
2018-10-05T08:14:15.078Z,12.53
2018-10-05T08:16:43.108Z,17.20
2018-10-05T08:19:11.249Z,15.00
2018-10-05T08:21:39.327Z,16.77
2018-10-05T08:24:07.244Z,13.73
2018-10-05T08:26:35.455Z,15.40
2018-10-05T08:29:03.484Z,13.63
2018-10-05T08:31:31.444Z,25.43
2018-10-05T08:33:59.666Z,11.20
2018-10-05T08:36:27.692Z,10.63
2018-10-05T08:38:55.637Z,12.00
2018-10-05T08:41:23.844Z,10.93
2018-10-05T08:43:53.158Z,18.63
2018-10-05T08:46:21.197Z,10.83
2018-10-05T08:48:49.678Z,10.63
2018-10-05T08:51:17.969Z,11.07
2018-10-05T08:53:45.979Z,11.20
2018-10-05T08:56:14.007Z,12.63
2018-10-05T08:58:42.152Z,8.80
2018-10-05T09:01:09.932Z,10.43
2018-10-05T09:03:37.993Z,8.43
2018-10-05T09:06:06.088Z,9.43
2018-10-05T09:08:34.445Z,9.10
2018-10-05T09:11:02.593Z,7.97
2018-10-05T09:13:30.579Z,8.93
2018-10-05T09:15:58.560Z,7.70
2018-10-05T09:18:26.368Z,7.77
2018-10-05T09:20:54.496Z,7.87
2018-10-05T09:23:22.616Z,7.30
2018-10-05T09:25:50.593Z,8.23
2018-10-05T09:28:18.609Z,9.17
2018-10-05T09:30:46.873Z,8.73
2018-10-05T09:33:14.791Z,7.70
2018-10-05T09:35:43.919Z,8.13
2018-10-05T09:38:13.143Z,9.03
2018-10-05T09:40:41.119Z,8.53
2018-10-05T09:43:09.104Z,8.70
2018-10-05T09:45:37.365Z,9.07
2018-10-05T09:48:05.520Z,8.40
2018-10-05T09:50:33.660Z,7.70
2018-10-05T09:53:01.868Z,8.17
2018-10-05T09:55:29.915Z,8.83
2018-10-05T09:57:58.392Z,7.67
2018-10-05T10:00:31.767Z,7.40
2018-10-05T10:03:00.735Z,8.30
2018-10-05T10:05:28.998Z,7.73
2018-10-05T10:07:57.117Z,7.97
2018-10-05T10:10:25.217Z,10.30
2018-10-05T10:12:53.204Z,7.90
2018-10-05T10:15:21.272Z,12.57
2018-10-05T10:17:49.264Z,7.23
2018-10-05T10:20:17.553Z,7.20
2018-10-05T10:22:45.850Z,6.43
2018-10-05T10:25:13.868Z,7.07
2018-10-05T10:27:42.888Z,7.90
2018-10-05T10:30:10.937Z,6.97
2018-10-05T10:32:38.890Z,6.90
2018-10-05T10:35:06.951Z,7.20
2018-10-05T10:37:35.248Z,7.30
2018-10-05T10:40:03.301Z,7.40
2018-10-05T10:42:31.246Z,7.33
2018-10-05T10:44:59.274Z,7.67
2018-10-05T10:47:27.453Z,6.77
2018-10-05T10:49:55.502Z,7.53
2018-10-05T10:52:23.499Z,7.93
2018-10-05T10:54:51.648Z,8.23
2018-10-05T10:57:19.776Z,7.10
2018-10-05T10:59:47.519Z,8.20
2018-10-05T11:02:15.564Z,7.43
2018-10-05T11:04:43.918Z,7.00
2018-10-05T11:07:11.998Z,13.10
2018-10-05T11:09:40.254Z,7.73
2018-10-05T11:12:08.038Z,7.53
2018-10-05T11:14:36.272Z,7.70
2018-10-05T11:17:04.373Z,6.97
2018-10-05T11:19:32.686Z,8.43
2018-10-05T11:22:00.766Z,7.63
2018-10-05T11:24:28.865Z,8.70
2018-10-05T11:26:56.811Z,8.40
2018-10-05T11:29:24.974Z,6.77
2018-10-05T11:31:53.140Z,7.37
2018-10-05T11:34:21.401Z,8.27
2018-10-05T11:36:49.363Z,9.80
2018-10-05T11:39:17.560Z,7.97
2018-10-05T11:41:45.572Z,8.23
2018-10-05T11:44:14.307Z,6.73
2018-10-05T11:46:42.520Z,7.53
2018-10-05T11:49:10.379Z,7.40
2018-10-05T11:51:38.500Z,7.87
2018-10-05T11:54:06.599Z,6.63
2018-10-05T11:56:34.689Z,6.80
2018-10-05T11:59:02.757Z,9.53
2018-10-05T12:01:30.873Z,7.73
2018-10-05T12:03:58.769Z,7.13
2018-10-05T12:06:26.833Z,8.20
2018-10-05T12:08:55.004Z,8.00
2018-10-05T12:11:23.074Z,8.47
2018-10-05T12:13:51.269Z,9.40
2018-10-05T12:16:19.217Z,7.60
2018-10-05T12:18:47.315Z,7.70
2018-10-05T12:21:15.408Z,7.40
2018-10-05T12:23:43.545Z,7.00
2018-10-05T12:26:11.391Z,7.57
2018-10-05T12:28:39.586Z,8.97
2018-10-05T12:31:07.613Z,6.70
2018-10-05T12:33:35.719Z,7.90
2018-10-05T12:36:04.036Z,8.03
2018-10-05T12:38:32.160Z,7.87
2018-10-05T12:41:00.625Z,7.57
2018-10-05T12:43:28.628Z,9.23
2018-10-05T12:45:56.724Z,8.73
2018-10-05T12:48:24.790Z,7.70
2018-10-05T12:50:52.830Z,6.70
2018-10-05T12:53:20.943Z,7.60
2018-10-05T12:55:48.932Z,7.43
2018-10-05T12:58:17.245Z,7.87
2018-10-05T13:00:45.507Z,8.27
2018-10-05T13:03:13.798Z,6.60
2018-10-05T13:05:41.796Z,11.97
2018-10-05T13:08:09.956Z,7.37
2018-10-05T13:10:38.037Z,6.40
2018-10-05T13:13:06.304Z,7.43
2018-10-05T13:15:34.521Z,7.73
2018-10-05T13:18:02.561Z,9.50
2018-10-05T13:20:30.522Z,10.10
2018-10-05T13:22:58.724Z,8.90
2018-10-05T13:25:26.780Z,11.93
2018-10-05T13:27:54.840Z,8.73
2018-10-05T13:30:22.880Z,10.57
2018-10-05T13:32:51.476Z,8.10
2018-10-05T13:35:19.639Z,7.80
2018-10-05T13:37:47.647Z,9.07
2018-10-05T13:40:15.817Z,7.07
2018-10-05T13:42:43.896Z,7.93
2018-10-05T13:45:11.939Z,8.13
2018-10-05T13:47:40.015Z,9.03
2018-10-05T13:50:10.352Z,8.87
2018-10-05T13:52:38.261Z,9.23
2018-10-05T13:55:06.117Z,9.43
2018-10-05T13:57:34.147Z,10.93
2018-10-05T14:00:02.300Z,10.13
2018-10-05T14:02:30.478Z,8.60
2018-10-05T14:04:58.539Z,8.97
2018-10-05T14:07:26.831Z,9.07
2018-10-05T14:09:55.117Z,8.03
2018-10-05T14:12:23.203Z,8.40
2018-10-05T14:14:51.266Z,8.13
2018-10-05T14:17:19.321Z,8.70
2018-10-05T14:19:47.315Z,8.40
2018-10-05T14:22:15.495Z,9.93
2018-10-05T14:24:43.627Z,7.90
2018-10-05T14:27:11.635Z,10.77
2018-10-05T14:29:39.673Z,7.73
2018-10-05T14:32:07.804Z,7.90
2018-10-05T14:34:35.719Z,8.70
2018-10-05T14:37:03.944Z,8.30
2018-10-05T14:39:32.001Z,9.37
2018-10-05T14:42:00.108Z,9.23
2018-10-05T14:44:28.063Z,15.67
2018-10-05T14:46:56.164Z,9.53
2018-10-05T14:49:24.334Z,8.50
2018-10-05T14:51:52.331Z,7.67
2018-10-05T14:54:20.396Z,8.37
2018-10-05T14:56:48.523Z,8.73
2018-10-05T14:59:16.667Z,8.60
2018-10-05T15:01:44.923Z,10.57
2018-10-05T15:04:12.968Z,7.50
2018-10-05T15:06:41.075Z,8.83
2018-10-05T15:09:09.105Z,8.27
2018-10-05T15:11:37.125Z,9.07
2018-10-05T15:14:05.191Z,10.13
2018-10-05T15:16:33.221Z,8.68
2018-10-05T15:19:01.407Z,9.25
2018-10-05T15:21:29.636Z,8.25
2018-10-05T15:23:57.961Z,8.05
2018-10-05T15:26:25.818Z,10.55
2018-10-05T15:28:53.997Z,11.88
2018-10-05T15:32:24.979Z,9.33
2018-10-05T15:34:53.110Z,8.65
2018-10-05T15:37:21.486Z,9.83
2018-10-05T15:39:50.092Z,9.40
2018-10-05T15:42:18.296Z,10.08
2018-10-05T15:44:46.588Z,8.95
2018-10-05T15:47:15.721Z,12.78
2018-10-05T15:49:44.364Z,11.20
2018-10-05T15:52:12.482Z,10.60
2018-10-05T15:54:40.773Z,10.23
2018-10-05T15:57:08.929Z,10.43
2018-10-05T15:59:37.676Z,13.22
2018-10-05T16:02:05.504Z,11.05
2018-10-05T16:04:37.365Z,12.23
2018-10-05T16:07:05.440Z,8.80
2018-10-05T16:09:33.560Z,8.58
2018-10-05T16:12:01.622Z,9.80
2018-10-05T16:14:29.672Z,9.73
2018-10-05T16:16:57.666Z,9.98
2018-10-05T16:19:25.799Z,9.13
2018-10-05T16:21:53.852Z,10.25
2018-10-05T16:24:26.821Z,9.18
2018-10-05T16:26:54.972Z,9.40
2018-10-05T16:29:22.873Z,9.20
2018-10-05T16:31:51.048Z,9.05
2018-10-05T16:34:19.139Z,11.00
2018-10-05T16:36:46.896Z,9.95
2018-10-05T16:39:14.964Z,9.60
2018-10-05T16:41:43.008Z,11.12
2018-10-05T16:44:11.360Z,10.15
2018-10-05T16:46:40.040Z,9.38
2018-10-05T16:49:09.752Z,10.20
2018-10-05T16:51:38.023Z,10.23
2018-10-05T16:54:06.192Z,10.65
2018-10-05T16:56:34.331Z,12.82
2018-10-05T16:59:02.253Z,10.85
2018-10-05T17:01:30.442Z,10.82
2018-10-05T17:03:58.909Z,15.25
2018-10-05T17:06:27.260Z,10.65
2018-10-05T17:08:58.936Z,14.05
2018-10-05T17:11:26.938Z,12.30
2018-10-05T17:13:54.917Z,12.58
2018-10-05T17:16:23.106Z,12.50
2018-10-05T17:18:52.435Z,16.52
2018-10-05T17:21:20.443Z,19.52
2018-10-05T17:23:48.520Z,18.05
2018-10-05T17:26:16.607Z,16.97
2018-10-05T17:28:44.588Z,15.23
2018-10-05T17:31:12.645Z,14.90
2018-10-05T17:33:40.824Z,13.18
2018-10-05T17:36:09.001Z,15.13
2018-10-05T17:38:37.248Z,12.40
2018-10-05T17:41:07.621Z,12.45
2018-10-05T17:43:35.892Z,12.10
2018-10-05T17:46:04.043Z,12.68
2018-10-05T17:48:32.323Z,13.30
2018-10-05T17:51:00.489Z,14.75
2018-10-05T17:53:28.838Z,14.83
2018-10-05T17:55:56.841Z,12.98
2018-10-05T17:58:24.944Z,13.95
2018-10-05T18:00:52.977Z,13.28
2018-10-05T18:03:20.944Z,15.53
2018-10-05T18:05:49.130Z,15.43
2018-10-05T18:08:17.095Z,15.65
2018-10-05T18:10:45.229Z,17.50
2018-10-05T18:13:13.194Z,14.73
2018-10-05T18:15:41.396Z,15.85
2018-10-05T18:18:09.479Z,15.05
2018-10-05T18:20:37.556Z,16.62
2018-10-05T18:23:06.856Z,13.32
2018-10-05T18:25:34.799Z,12.88
2018-10-05T18:28:02.564Z,14.47
2018-10-05T18:30:30.351Z,14.45
2018-10-05T18:32:58.431Z,14.15
2018-10-05T18:35:26.668Z,14.95
2018-10-05T18:37:54.953Z,15.63
2018-10-05T18:40:23.056Z,14.80
2018-10-05T18:42:51.117Z,16.75
2018-10-05T18:45:19.077Z,15.28
2018-10-05T18:47:47.215Z,16.07
2018-10-05T18:50:15.206Z,15.65
2018-10-05T18:52:43.318Z,15.58
2018-10-05T18:55:12.264Z,16.90
2018-10-05T18:57:40.043Z,16.93
2018-10-05T19:00:08.191Z,18.60
2018-10-05T19:02:36.319Z,18.17
2018-10-05T19:05:04.631Z,16.15
2018-10-05T19:07:32.762Z,17.67
2018-10-05T19:10:00.812Z,16.05
2018-10-05T19:12:28.963Z,17.25
2018-10-05T19:14:57.557Z,16.00
2018-10-05T19:17:25.967Z,17.00
2018-10-05T19:19:54.015Z,17.23
2018-10-05T19:22:22.043Z,16.57
2018-10-05T19:24:50.148Z,15.65
2018-10-05T19:27:19.055Z,16.95
2018-10-05T19:29:47.264Z,16.37
2018-10-05T19:32:15.295Z,16.23
2018-10-05T19:34:43.283Z,17.87
2018-10-05T19:37:11.432Z,18.35
2018-10-05T19:39:39.564Z,16.07
2018-10-05T19:42:08.359Z,15.48
2018-10-05T19:44:36.579Z,15.45
2018-10-05T19:47:04.688Z,16.23
2018-10-05T19:49:32.660Z,16.85
2018-10-05T19:52:00.414Z,17.07
2018-10-05T19:54:28.548Z,16.65
2018-10-05T19:56:56.739Z,17.50
2018-10-05T19:59:24.973Z,17.52
2018-10-05T20:01:53.025Z,17.12
2018-10-05T20:04:21.099Z,18.50
2018-10-05T20:06:49.233Z,18.50
2018-10-05T20:09:17.223Z,17.55
2018-10-05T20:11:45.344Z,17.52
2018-10-05T20:14:13.497Z,17.90
2018-10-05T20:16:41.477Z,19.25
2018-10-05T20:19:09.577Z,18.23
2018-10-05T20:21:38.472Z,18.57
2018-10-05T20:24:06.954Z,16.95
2018-10-05T20:26:35.068Z,16.62
2018-10-05T20:29:03.094Z,15.88
2018-10-05T20:31:31.065Z,14.80
2018-10-05T20:33:59.036Z,16.00
2018-10-05T20:36:27.015Z,16.05
2018-10-05T20:38:55.234Z,16.23
2018-10-05T20:41:23.620Z,22.85
2018-10-05T20:43:51.881Z,15.95
2018-10-05T20:46:19.785Z,16.95
2018-10-05T20:48:47.563Z,16.25
2018-10-05T20:51:15.725Z,14.87
2018-10-05T20:53:43.781Z,15.40
2018-10-05T20:56:11.772Z,13.18
2018-10-05T20:58:39.730Z,15.48
2018-10-05T21:01:08.097Z,13.88
2018-10-05T21:03:36.780Z,13.75
2018-10-05T21:06:05.064Z,14.20
2018-10-05T21:08:33.351Z,14.95
2018-10-05T21:11:01.880Z,14.25
2018-10-05T21:13:29.904Z,12.65
2018-10-05T21:15:57.884Z,13.58
2018-10-05T21:18:26.111Z,13.95
2018-10-05T21:20:54.027Z,12.53
2018-10-05T21:23:22.187Z,11.95
2018-10-05T21:25:50.162Z,12.65
2018-10-05T21:28:18.333Z,13.28
2018-10-05T21:30:46.461Z,12.60
2018-10-05T21:33:14.481Z,16.05
2018-10-05T21:35:43.288Z,12.07
2018-10-05T21:38:11.136Z,11.83
2018-10-05T21:40:38.875Z,10.98
2018-10-05T21:43:07.096Z,11.70
2018-10-05T21:45:35.149Z,12.88
2018-10-05T21:48:03.130Z,10.58
2018-10-05T21:50:31.599Z,12.82
2018-10-05T21:52:59.617Z,10.93
2018-10-05T21:55:27.776Z,10.93
2018-10-05T21:57:55.772Z,11.70
2018-10-05T22:00:23.863Z,11.05
2018-10-05T22:02:51.933Z,11.35
2018-10-05T22:05:19.943Z,10.65
2018-10-05T22:07:48.075Z,10.90
2018-10-05T22:10:17.151Z,10.78
2018-10-05T22:12:45.027Z,11.97
2018-10-05T22:15:13.220Z,11.10
2018-10-05T22:17:41.309Z,11.08
2018-10-05T22:20:09.285Z,14.10
2018-10-05T22:22:37.440Z,11.95
2018-10-05T22:25:05.484Z,12.37
2018-10-05T22:27:35.789Z,12.18
2018-10-05T22:30:04.700Z,12.70
2018-10-05T22:32:32.703Z,11.78
2018-10-05T22:35:00.920Z,12.70
2018-10-05T22:37:28.829Z,12.40
2018-10-05T22:39:56.847Z,10.38
2018-10-05T22:42:25.196Z,12.07
2018-10-05T22:44:53.504Z,10.65
2018-10-05T22:47:21.433Z,13.22
2018-10-05T22:49:49.580Z,11.25
2018-10-05T22:52:17.652Z,12.10
2018-10-05T22:54:45.816Z,12.58
2018-10-05T22:57:13.830Z,11.63
2018-10-05T22:59:41.763Z,11.57
2018-10-05T23:02:10.009Z,12.15
2018-10-05T23:04:38.008Z,11.03
2018-10-05T23:07:05.982Z,11.48
2018-10-05T23:09:34.187Z,11.63
2018-10-05T23:12:02.248Z,11.30
2018-10-05T23:14:31.277Z,11.70
2018-10-05T23:16:59.195Z,11.30
2018-10-05T23:19:27.478Z,10.90
2018-10-05T23:21:55.325Z,11.48
2018-10-05T23:24:23.088Z,12.53
2018-10-05T23:26:50.974Z,12.60
2018-10-05T23:29:19.883Z,12.50
2018-10-05T23:31:48.071Z,13.65
2018-10-05T23:34:16.606Z,13.38
2018-10-05T23:36:44.755Z,13.00
2018-10-05T23:39:12.936Z,14.07
2018-10-05T23:41:40.953Z,13.62
2018-10-05T23:44:09.103Z,12.95
2018-10-05T23:46:37.122Z,13.08
2018-10-05T23:49:05.261Z,11.80
2018-10-05T23:51:33.524Z,13.70
2018-10-05T23:54:04.219Z,13.78
2018-10-05T23:56:32.003Z,13.35
2018-10-05T23:59:00.175Z,12.93
